Huvudsida
METAR-TAF:

METAR-TAF

Flygplatser :

Halmstad, Sverige

Halmstad City Airport

latitud: 56-41N, longitud: 012-50E, höjd: 30 m

Aktuellt väderrapport

Denna rapport gjordes för 19 minuter sedan, klockan 03:20 UTC
Vind 3 kt från ost/nordost
Temperatur -1°C
Fuktighet 86%
Tryck 998 hPa
Sikt 10 km eller mer

METAR: ESMT 190320Z AUTO 06003KT 9999 BKN034/// M01/M03 Q0998

Tid: 04:39 (03:39 UTC)

Väderprognos

Denna rapport gjordes för 10 timmar och 28 minuter sedan, klockan 17:11 UTC
Prognos gäller från 18 kl. 18 UTC till 18 kl. 22 UTC
Vind 8 kt från ost/nordost
Sikt 10 km eller mer
Få moln på en höjd av 1200 ft
Brutna moln på en höjd av 2000 ft
Temporärt
från 18 kl. 18 UTC till 18 kl. 22 UTC
Brutna moln på en höjd av 1200 ft

TAF: ESMT 181711Z 1818/1822 07008KT 9999 FEW012 BKN020 TEMPO 1818/1822 BKN012

Aktuella väderrapporter och prognoser från 4000 flygplatser (METAR- och TAF-rapporter).

De tillgängliga stationerna syns som gula och röda prickar på kartan.

För musen över prickarna för att se namnen på stationerna.

Klicka sedan för att få väderrapporter och prognoser.

För att ändra kartan: Klicka på de gröna knapparna med ett svart kors på för att zooma in; den gröna knappen med ett streck på för att zooma ut; eller på de gröna pilarna för angränsande kartor.


METAR-TAF: